Current Conditions
Misty
Conditions



Pressure
30.03 (inHG) - 1016.92 (mb)
Visibility

2.2 (km) - 1.4 (miles)
Temperature
-3  °C
Temperature
-4  °C
Dewpoint
93  %
 Humidity
Wind Speed
2.2  m/s
5  mph
8  km/h
4  kts
Wind Direction
N
45°
E
90°
135°
S
180°
225°
W
270°
315°
 70°

East North
East
Airport Data
URKA
Anapa Vityazevo Airport
Metar :URKA 262230Z 07002MPS 2200 BR BKN011 OVC041 M03/M04 Q1017 R04/190065 TEMPO 0800 -SN FZFG BKN004 RMK QFE759/1012
Thu 27th January 01:30 am
Raw Metar Info
Raw METAR is the most common format in the world for the transmission of observational weather data. It is highly standardized through the International Civil Aviation Organization (ICAO), which allows it to be understood throughout most of the world.
API Info
Data Provided by
https://www.checkwx.com/weather/URKA

Aviation Weather providing METAR, TAF, AIRMET, SIGMET and OUTLOOK Weather Reports
© Info
CSS/SVG/PHP scripts were developed by weather34 for use in the weather34 template © 2015-2022

Guide Info provided by Metar-Wikipedia